Time;durP1;ratioP1;P1;durP2;ratioP2;P2;SDS_P1;SDS_P2;PMS_P1;PMS_P2;Temp;Humidity;BMP_temperature;BMP_pressure;BME280_temperature;BME280_humidity;BME280_pressure;Samples;Min_cycle;Max_cycle;Signal;HPM_P1;HPM_P2
2023/08/28 00:02:20;;;;;;;12.45;6.45;;;;;;;24.58;71.76;100257.97;5013222;28;20037;-82
2023/08/28 00:04:45;;;;;;;14.93;7.47;;;;;;;24.62;72.05;100262.78;5004590;28;20114;-84
2023/08/28 00:07:11;;;;;;;16.45;8.45;;;;;;;24.63;72.82;100258.97;4993263;28;20025;-81
2023/08/28 00:09:36;;;;;;;14.05;8.23;;;;;;;24.61;73.33;100255.63;4997846;28;20060;-83
2023/08/28 00:12:02;;;;;;;15.80;7.93;;;;;;;24.56;73.48;100243.59;4994758;28;20517;-83
2023/08/28 00:14:28;;;;;;;11.43;7.78;;;;;;;24.53;73.52;100239.41;5006329;28;20041;-83
2023/08/28 00:16:53;;;;;;;11.65;7.00;;;;;;;24.53;73.82;100241.28;4942181;28;20046;-82
2023/08/28 00:19:20;;;;;;;16.38;6.65;;;;;;;24.53;73.32;100236.66;4992569;28;20030;-83
2023/08/28 00:21:45;;;;;;;14.23;7.25;;;;;;;24.48;72.16;100225.50;5010102;28;20064;-83
2023/08/28 00:24:11;;;;;;;11.75;6.13;;;;;;;24.52;70.94;100231.38;5001945;28;20506;-84
2023/08/28 00:26:36;;;;;;;19.95;7.50;;;;;;;24.44;71.78;100210.50;5009013;28;20029;-83
2023/08/28 00:29:02;;;;;;;15.13;7.45;;;;;;;24.51;71.58;100215.94;5010931;28;20084;-83
2023/08/28 00:31:28;;;;;;;13.52;7.85;;;;;;;24.47;71.49;100210.03;4999585;28;20117;-84
2023/08/28 00:33:54;;;;;;;11.48;7.45;;;;;;;24.54;70.99;100219.09;4994740;28;20113;-82
2023/08/28 00:36:19;;;;;;;19.13;7.35;;;;;;;24.53;71.05;100214.66;4995272;28;20025;-82
2023/08/28 00:38:45;;;;;;;20.23;7.35;;;;;;;24.55;71.25;100211.69;5005100;28;20029;-83
2023/08/28 00:41:11;;;;;;;17.13;6.85;;;;;;;24.55;71.28;100218.03;4993021;28;20471;-81
2023/08/28 00:43:37;;;;;;;12.57;6.38;;;;;;;24.54;70.85;100219.09;5006411;28;20045;-84
2023/08/28 00:46:04;;;;;;;17.50;7.90;;;;;;;24.50;70.41;100215.09;5014023;28;20096;-84
2023/08/28 00:48:30;;;;;;;9.90;6.78;;;;;;;24.47;70.70;100225.69;5012140;28;20033;-82
2023/08/28 00:50:56;;;;;;;12.50;7.40;;;;;;;24.38;71.87;100222.41;5011956;28;20042;-83
2023/08/28 00:53:22;;;;;;;12.90;8.20;;;;;;;24.36;72.38;100224.53;5011769;28;20076;-83
2023/08/28 00:55:47;;;;;;;15.48;7.53;;;;;;;24.24;73.80;100213.44;4980882;28;20046;-84
2023/08/28 00:58:14;;;;;;;14.00;8.27;;;;;;;24.24;74.38;100223.56;4993165;28;20034;-83
2023/08/28 01:00:42;;;;;;;15.82;8.68;;;;;;;24.30;75.22;100228.19;4993081;28;20038;-83
2023/08/28 01:03:09;;;;;;;20.90;9.95;;;;;;;24.19;75.92;100228.88;4992266;28;20161;-84
2023/08/28 01:06:03;;;;;;;12.65;9.10;;;;;;;24.20;76.58;100225.06;4991711;28;20391;-83
2023/08/28 01:08:50;;;;;;;18.13;9.73;;;;;;;24.20;76.92;100238.81;4991720;28;20053;-83
2023/08/28 01:11:33;;;;;;;13.77;8.70;;;;;;;24.19;77.22;100232.47;4996690;28;20037;-82
2023/08/28 01:14:10;;;;;;;19.05;9.88;;;;;;;24.07;77.67;100217.72;4996696;28;20038;-80
2023/08/28 01:16:36;;;;;;;32.90;12.25;;;;;;;24.15;77.64;100230.41;4991786;28;20033;-81
2023/08/28 01:19:07;;;;;;;19.05;11.30;;;;;;;24.10;77.98;100235.69;4991846;28;20034;-83
2023/08/28 01:21:32;;;;;;;22.38;13.18;;;;;;;23.94;77.83;100204.13;5002221;28;20030;-82
2023/08/28 01:24:00;;;;;;;17.52;12.82;;;;;;;24.04;78.12;100242.06;5002063;28;20077;-82
2023/08/28 01:26:26;;;;;;;18.92;11.77;;;;;;;23.93;78.62;100240.88;4996355;28;20104;-82
2023/08/28 01:28:52;;;;;;;20.40;11.68;;;;;;;23.92;78.80;100239.19;5011850;28;20486;-82
2023/08/28 01:31:17;;;;;;;20.27;11.40;;;;;;;23.84;79.02;100237.56;5012699;28;20409;-84
2023/08/28 01:33:44;;;;;;;23.48;11.15;;;;;;;23.90;79.10;100240.47;4993730;28;20037;-82
2023/08/28 01:36:16;;;;;;;20.33;10.70;;;;;;;23.73;78.96;100219.00;4991913;28;20029;-82
2023/08/28 01:38:48;;;;;;;21.83;10.55;;;;;;;23.85;79.50;100241.16;4992456;28;20113;-82
2023/08/28 01:41:19;;;;;;;23.55;10.55;;;;;;;23.79;79.08;100226.38;4992372;28;20033;-81
2023/08/28 01:43:48;;;;;;;25.90;11.07;;;;;;;23.85;79.43;100236.47;4994043;28;20097;-82
2023/08/28 01:46:15;;;;;;;22.77;10.20;;;;;;;23.87;78.87;100235.41;5012440;28;20026;-83
2023/08/28 01:48:44;;;;;;;18.70;10.93;;;;;;;23.79;79.18;100237.34;5011596;28;20033;-82
2023/08/28 01:51:10;;;;;;;23.48;10.52;;;;;;;23.79;79.16;100237.34;5011957;28;20026;-81
2023/08/28 01:53:36;;;;;;;18.98;10.40;;;;;;;23.76;79.11;100240.53;5011672;28;20089;-83
2023/08/28 01:56:07;;;;;;;20.67;10.90;;;;;;;23.62;79.48;100219.72;5012208;28;20088;-83
2023/08/28 01:58:42;;;;;;;16.93;9.77;;;;;;;23.75;79.22;100238.03;5011895;28;20492;-84
2023/08/28 02:01:07;;;;;;;21.40;10.48;;;;;;;23.77;79.30;100242.25;5005450;28;20313;-83
2023/08/28 02:03:33;;;;;;;17.38;11.85;;;;;;;23.79;78.56;100242.03;5008734;28;20050;-78
2023/08/28 02:05:58;;;;;;;21.85;10.02;;;;;;;23.61;78.60;100218.03;5020447;28;20066;-78
2023/08/28 02:08:24;;;;;;;14.70;10.40;;;;;;;23.74;78.57;100239.94;5022249;28;20038;-79
2023/08/28 02:10:51;;;;;;;17.70;9.02;;;;;;;23.67;78.53;100236.38;4991894;28;20076;-78
2023/08/28 02:13:17;;;;;;;20.42;9.77;;;;;;;23.62;77.96;100225.22;4995073;28;20047;-81
2023/08/28 02:15:42;;;;;;;14.88;8.85;;;;;;;23.70;77.97;100235.94;4995582;28;20049;-82
2023/08/28 02:18:09;;;;;;;17.45;9.57;;;;;;;23.65;78.24;100244.00;4992449;28;20051;-78
2023/08/28 02:20:34;;;;;;;17.25;9.60;;;;;;;23.64;78.05;100247.78;4970662;28;20196;-84
2023/08/28 02:22:59;;;;;;;19.95;9.85;;;;;;;23.65;77.62;100241.25;4950999;28;20027;-84
2023/08/28 02:25:25;;;;;;;16.38;9.73;;;;;;;23.59;77.42;100239.38;4950614;29;20508;-82
2023/08/28 02:27:50;;;;;;;22.23;9.70;;;;;;;23.62;76.72;100238.09;4950394;28;20039;-83
2023/08/28 02:30:19;;;;;;;14.05;8.93;;;;;;;23.66;76.60;100242.09;4960300;28;20105;-81
2023/08/28 02:32:44;;;;;;;13.88;8.32;;;;;;;23.70;76.04;100241.41;4965124;28;20419;-83
2023/08/28 02:35:11;;;;;;;10.85;8.80;;;;;;;23.70;75.66;100224.09;4969961;28;20038;-83
2023/08/28 02:37:37;;;;;;;19.38;9.32;;;;;;;23.71;75.80;100237.63;4968858;28;20174;-81
2023/08/28 02:40:04;;;;;;;25.45;9.50;;;;;;;23.73;75.10;100229.16;4955753;28;20035;-81
2023/08/28 02:42:29;;;;;;;23.52;9.52;;;;;;;23.76;75.05;100231.47;4994638;28;20421;-82
2023/08/28 02:44:54;;;;;;;19.42;9.95;;;;;;;23.60;74.88;100210.88;5019206;28;20026;-84
2023/08/28 02:47:20;;;;;;;16.55;9.57;;;;;;;23.69;75.01;100228.78;5010318;28;20030;-82
2023/08/28 02:49:47;;;;;;;19.33;9.27;;;;;;;23.70;74.56;100235.94;4995093;28;20034;-83
2023/08/28 02:52:12;;;;;;;14.50;9.60;;;;;;;23.71;74.31;100229.38;5002042;28;20049;-82
2023/08/28 02:54:38;;;;;;;16.55;10.02;;;;;;;23.72;73.84;100231.09;5010262;28;20350;-79
2023/08/28 02:57:03;;;;;;;28.58;11.10;;;;;;;23.71;73.50;100234.88;5022664;28;20064;-81
2023/08/28 02:59:29;;;;;;;22.67;11.93;;;;;;;23.53;73.13;100214.69;5030432;28;20034;-80
2023/08/28 03:01:54;;;;;;;25.00;11.40;;;;;;;23.59;72.76;100233.88;5006435;28;20069;-81
2023/08/28 03:04:19;;;;;;;15.38;10.52;;;;;;;23.54;72.89;100241.09;4991627;28;20522;-81
2023/08/28 03:06:45;;;;;;;26.70;10.55;;;;;;;23.52;72.57;100249.53;4996779;28;20027;-82
2023/08/28 03:09:12;;;;;;;24.95;10.05;;;;;;;23.44;73.06;100237.97;4992045;28;20034;-81
2023/08/28 03:11:37;;;;;;;24.67;9.95;;;;;;;23.44;73.22;100236.06;5001883;28;20037;-85
2023/08/28 03:14:03;;;;;;;20.55;11.18;;;;;;;23.23;73.35;100206.16;5010208;28;20036;-79
2023/08/28 03:16:28;;;;;;;20.90;11.35;;;;;;;23.44;72.93;100244.31;5007385;28;20119;-80
2023/08/28 03:18:54;;;;;;;25.30;12.90;;;;;;;23.40;73.24;100237.56;4998806;28;20022;-80
2023/08/28 03:21:19;;;;;;;28.45;12.48;;;;;;;23.33;73.20;100239.47;4997542;28;20035;-82
2023/08/28 03:23:45;;;;;;;26.23;12.00;;;;;;;23.29;74.11;100233.56;4991320;28;20081;-81
2023/08/28 03:26:10;;;;;;;32.90;12.02;;;;;;;23.27;73.83;100240.34;4990359;28;20030;-79
2023/08/28 03:28:36;;;;;;;23.67;11.85;;;;;;;23.26;73.76;100228.50;5008776;28;20030;-81
2023/08/28 03:31:01;;;;;;;22.48;13.20;;;;;;;23.31;74.18;100225.09;5005362;28;20061;-82
2023/08/28 03:33:27;;;;;;;38.35;14.02;;;;;;;23.22;73.96;100212.69;5022438;28;20036;-81
2023/08/28 03:35:53;;;;;;;29.70;12.57;;;;;;;23.21;73.63;100213.72;5031987;28;20182;-83
2023/08/28 03:38:19;;;;;;;42.55;12.13;;;;;;;23.24;73.60;100211.41;5015530;28;20041;-81
2023/08/28 03:40:46;;;;;;;35.58;16.23;;;;;;;23.39;73.87;100235.88;5013293;28;20042;-79
2023/08/28 03:43:12;;;;;;;34.22;16.55;;;;;;;23.28;73.69;100231.88;5013903;28;20026;-83
2023/08/28 03:45:38;;;;;;;44.25;18.52;;;;;;;23.19;73.89;100213.13;5008358;28;20038;-81
2023/08/28 03:48:04;;;;;;;43.78;20.95;;;;;;;23.26;73.68;100224.91;4998874;28;20596;-82
2023/08/28 03:50:30;;;;;;;45.30;25.38;;;;;;;23.26;73.92;100228.50;5003378;28;20033;-86
2023/08/28 03:52:59;;;;;;;66.57;25.67;;;;;;;23.26;74.41;100234.00;5000910;28;20030;-85
2023/08/28 03:55:27;;;;;;;54.15;24.35;;;;;;;23.19;74.53;100224.94;5025048;28;20200;-84
2023/08/28 03:57:53;;;;;;;57.38;24.73;;;;;;;23.17;74.44;100218.84;5013385;28;20081;-82
2023/08/28 04:00:19;;;;;;;52.38;30.17;;;;;;;23.24;74.36;100241.59;5010961;28;20092;-79
2023/08/28 04:02:46;;;;;;;75.25;32.63;;;;;;;23.16;74.44;100230.00;5007954;28;20116;-88
2023/08/28 04:05:13;;;;;;;70.35;35.03;;;;;;;23.25;74.68;100250.66;5014590;28;20037;-88
2023/08/28 04:07:38;;;;;;;55.25;32.42;;;;;;;23.16;74.94;100249.22;5015100;28;20061;-87
2023/08/28 04:10:04;;;;;;;66.97;31.48;;;;;;;23.08;74.71;100233.00;5014864;28;20029;-89
2023/08/28 04:12:30;;;;;;;67.25;33.90;;;;;;;23.14;74.86;100265.06;5014313;28;20037;-85
2023/08/28 04:14:57;;;;;;;68.95;31.80;;;;;;;23.10;74.58;100250.09;5014015;28;20413;-87
2023/08/28 04:17:23;;;;;;;65.53;30.52;;;;;;;22.95;74.83;100235.78;5014239;28;20120;-89
2023/08/28 04:19:51;;;;;;;68.57;28.10;;;;;;;23.13;75.16;100256.00;5014218;28;20505;-86
2023/08/28 04:22:17;;;;;;;52.00;29.60;;;;;;;23.17;74.81;100251.75;5014152;28;20596;-86
2023/08/28 04:24:44;;;;;;;68.10;29.63;;;;;;;23.18;74.37;100238.84;5014171;28;20034;-87
2023/08/28 04:27:10;;;;;;;79.15;30.08;;;;;;;23.21;74.33;100243.91;5014210;28;20038;-86
2023/08/28 04:29:35;;;;;;;83.97;28.30;;;;;;;23.17;73.94;100234.44;5013547;28;20026;-84
2023/08/28 04:32:00;;;;;;;65.88;27.17;;;;;;;23.05;74.03;100211.50;5014474;28;20037;-85
2023/08/28 04:34:26;;;;;;;71.18;28.35;;;;;;;23.26;73.56;100238.66;5014707;28;20714;-86
2023/08/28 04:36:51;;;;;;;128.57;34.55;;;;;;;23.26;73.78;100230.41;5013931;28;20037;-87
2023/08/28 04:39:17;;;;;;;75.78;29.02;;;;;;;23.40;73.30;100248.53;4995996;28;20053;-83
2023/08/28 04:41:42;;;;;;;84.43;30.58;;;;;;;23.41;73.11;100242.00;5018424;28;20029;-84
2023/08/28 04:44:07;;;;;;;72.35;28.33;;;;;;;23.41;73.52;100236.50;5025048;28;20032;-86
2023/08/28 04:46:33;;;;;;;67.35;28.95;;;;;;;23.47;73.08;100238.38;5010520;28;20088;-89
2023/08/28 04:48:58;;;;;;;76.32;31.77;;;;;;;23.48;73.06;100226.34;5011126;28;20494;-82
2023/08/28 04:51:24;;;;;;;71.47;30.30;;;;;;;23.53;73.26;100228.41;5012349;28;20113;-82
2023/08/28 04:53:49;;;;;;;66.53;28.35;;;;;;;23.58;72.93;100223.09;5007735;28;20030;-82
2023/08/28 04:56:14;;;;;;;56.38;28.40;;;;;;;23.62;73.41;100221.63;5013324;28;20025;-84
2023/08/28 04:58:40;;;;;;;66.90;27.75;;;;;;;23.73;73.16;100230.00;5007715;28;20493;-84
2023/08/28 05:01:06;;;;;;;50.38;25.42;;;;;;;23.79;72.63;100233.78;5013811;28;20481;-86
2023/08/28 05:03:31;;;;;;;62.45;23.88;;;;;;;23.79;72.16;100220.06;5013546;28;20046;-84
2023/08/28 05:05:57;;;;;;;46.20;21.85;;;;;;;23.81;71.50;100218.78;5008816;28;20033;-82
2023/08/28 05:08:22;;;;;;;41.88;21.70;;;;;;;23.98;70.98;100243.78;5012297;28;20037;-83
2023/08/28 05:10:48;;;;;;;65.68;23.05;;;;;;;24.06;70.99;100237.22;5011860;28;20025;-82
2023/08/28 05:13:13;;;;;;;46.25;20.23;;;;;;;24.10;70.49;100224.69;5004828;28;20034;-80
2023/08/28 05:15:39;;;;;;;58.25;20.70;;;;;;;24.24;70.12;100226.31;4993411;28;20030;-84
2023/08/28 05:18:04;;;;;;;53.92;21.13;;;;;;;24.20;69.90;100214.94;5004752;28;20038;-85
2023/08/28 05:20:30;;;;;;;77.85;24.85;;;;;;;24.38;69.67;100231.50;5013393;28;20050;-83
2023/08/28 05:22:55;;;;;;;66.20;24.25;;;;;;;24.44;69.24;100221.50;5013140;28;20041;-86
2023/08/28 05:25:21;;;;;;;52.88;22.70;;;;;;;24.50;68.69;100219.75;5012337;28;20482;-84
2023/08/28 05:27:46;;;;;;;70.20;26.17;;;;;;;24.60;68.04;100220.94;5012519;28;20025;-84
2023/08/28 05:30:12;;;;;;;49.45;23.88;;;;;;;24.75;67.65;100220.56;5001378;28;20102;-83
2023/08/28 05:32:38;;;;;;;66.72;25.90;;;;;;;24.81;66.71;100217.78;4993769;28;20042;-83
2023/08/28 05:35:05;;;;;;;52.00;23.85;;;;;;;24.91;66.67;100211.78;4993105;28;20038;-84
2023/08/28 05:37:31;;;;;;;57.80;25.17;;;;;;;24.87;65.85;100194.88;4997092;28;20065;-84
2023/08/28 05:39:56;;;;;;;45.65;24.45;;;;;;;25.10;65.43;100224.47;5004129;28;20018;-84
2023/08/28 05:42:22;;;;;;;60.47;28.08;;;;;;;25.16;64.88;100220.81;5012092;28;20096;-83
2023/08/28 05:44:47;;;;;;;48.22;27.63;;;;;;;25.22;64.74;100224.56;4995429;28;20030;-83
2023/08/28 05:47:12;;;;;;;64.45;26.38;;;;;;;25.32;64.28;100222.06;5002853;28;20034;-84
2023/08/28 05:49:38;;;;;;;63.40;26.60;;;;;;;25.38;64.15;100221.19;5012360;28;20026;-84
2023/08/28 05:52:04;;;;;;;71.20;26.40;;;;;;;25.48;63.97;100215.09;5011984;28;20030;-84
2023/08/28 05:54:29;;;;;;;47.83;24.05;;;;;;;25.47;63.26;100205.19;5013603;28;20026;-84
2023/08/28 05:56:55;;;;;;;58.75;22.88;;;;;;;25.67;62.85;100234.16;5012275;28;20030;-85
2023/08/28 05:59:20;;;;;;;47.10;21.30;;;;;;;25.76;62.12;100232.78;5011520;28;20067;-84
2023/08/28 06:01:46;;;;;;;48.58;20.25;;;;;;;25.85;61.78;100242.38;5013054;28;20109;-84
2023/08/28 06:04:11;;;;;;;46.17;20.35;;;;;;;25.93;61.29;100249.50;5012247;28;20038;-85
2023/08/28 06:06:41;;;;;;;42.92;21.20;;;;;;;25.99;60.40;100246.63;5009145;28;20550;-83
2023/08/28 06:09:07;;;;;;;57.00;20.92;;;;;;;25.99;59.94;100226.53;5011655;28;20041;-84
2023/08/28 06:11:33;;;;;;;49.75;21.90;;;;;;;26.19;59.55;100237.25;5014231;28;20141;-85
2023/08/28 06:14:00;;;;;;;41.90;20.30;;;;;;;26.24;59.38;100234.63;5015305;28;20033;-83
2023/08/28 06:16:26;;;;;;;44.13;17.15;;;;;;;26.35;58.29;100242.09;5013640;28;20029;-82
2023/08/28 06:18:51;;;;;;;41.33;17.45;;;;;;;26.46;57.95;100247.63;5014311;28;20041;-85
2023/08/28 06:21:17;;;;;;;47.83;18.98;;;;;;;26.44;57.76;100224.13;5014903;28;20501;-85
2023/08/28 06:23:42;;;;;;;46.55;20.05;;;;;;;26.58;57.55;100233.84;5012664;28;20072;-84
2023/08/28 06:26:08;;;;;;;56.78;24.20;;;;;;;26.70;57.65;100240.22;5019296;28;20033;-82
2023/08/28 06:28:34;;;;;;;53.92;28.17;;;;;;;26.87;57.28;100243.97;5009141;28;20080;-83
2023/08/28 06:31:01;;;;;;;66.45;28.17;;;;;;;26.97;57.03;100252.47;5002143;28;20033;-83
2023/08/28 06:33:26;;;;;;;63.45;28.30;;;;;;;27.06;57.00;100243.84;5011288;28;20025;-83
2023/08/28 06:35:52;;;;;;;79.57;28.50;;;;;;;27.10;56.69;100228.47;4960745;28;20076;-83
2023/08/28 06:38:18;;;;;;;44.75;24.70;;;;;;;27.24;56.12;100236.28;5011174;28;20478;-83
2023/08/28 06:40:53;;;;;;;61.05;23.00;;;;;;;27.34;55.76;100241.16;5015728;28;20018;-81
2023/08/28 06:43:19;;;;;;;51.60;21.33;;;;;;;27.43;55.47;100243.31;5017763;28;20045;-83
2023/08/28 06:45:47;;;;;;;49.65;21.85;;;;;;;27.52;55.21;100232.75;5013743;28;20035;-82
2023/08/28 06:48:13;;;;;;;46.40;20.13;;;;;;;27.65;55.16;100249.03;5016614;28;20040;-84
2023/08/28 06:50:38;;;;;;;43.90;20.52;;;;;;;27.66;54.77;100228.59;5011517;28;20113;-83
2023/08/28 06:53:04;;;;;;;36.85;18.52;;;;;;;27.80;55.00;100241.03;5012452;28;20033;-82
2023/08/28 06:55:32;;;;;;;45.10;17.20;;;;;;;27.86;54.96;100240.06;5007956;28;20045;-78
2023/08/28 06:57:58;;;;;;;24.38;12.88;;;;;;;27.95;54.44;100237.75;5015091;28;20205;-79
2023/08/28 07:00:23;;;;;;;33.92;11.70;;;;;;;28.08;54.28;100237.44;5024537;28;20037;-78
2023/08/28 07:02:49;;;;;;;33.22;11.25;;;;;;;28.22;53.78;100249.06;5034048;28;20032;-81
2023/08/28 07:05:15;;;;;;;29.13;11.13;;;;;;;28.22;53.68;100249.06;5018149;28;20110;-83
2023/08/28 07:07:40;;;;;;;38.75;10.35;;;;;;;28.30;53.20;100245.88;5027438;28;20048;-79
2023/08/28 07:10:06;;;;;;;24.90;9.15;;;;;;;28.40;52.41;100246.06;5032892;28;20034;-84
2023/08/28 07:12:33;;;;;;;25.20;7.30;;;;;;;28.54;51.30;100253.78;5018361;28;20030;-85
2023/08/28 07:15:11;;;;;;;20.17;7.25;;;;;;;28.63;50.76;100254.19;4996036;28;20395;-83
2023/08/28 07:17:37;;;;;;;14.18;5.82;;;;;;;28.72;49.61;100249.09;4998703;28;20080;-81
2023/08/28 07:20:04;;;;;;;14.55;6.93;;;;;;;28.84;49.05;100247.91;4997980;28;20029;-84
2023/08/28 07:22:30;;;;;;;18.63;5.90;;;;;;;28.93;48.68;100249.16;5005508;28;20104;-82
2023/08/28 07:24:56;;;;;;;26.05;6.13;;;;;;;28.93;48.39;100246.38;5016541;28;20080;-82
2023/08/28 07:27:21;;;;;;;12.93;5.70;;;;;;;28.99;48.79;100242.59;4949213;28;20050;-85
2023/08/28 07:29:47;;;;;;;13.68;6.15;;;;;;;29.09;48.29;100245.53;5016722;28;20060;-81
2023/08/28 07:32:12;;;;;;;8.60;4.97;;;;;;;29.12;46.79;100241.41;5011547;28;20057;-83
2023/08/28 07:34:38;;;;;;;15.57;4.68;;;;;;;29.16;46.59;100251.72;5007773;28;20033;-81
2023/08/28 07:37:04;;;;;;;16.65;5.55;;;;;;;29.07;45.39;100220.03;5009456;28;20484;-84
2023/08/28 07:39:30;;;;;;;16.58;4.25;;;;;;;29.25;45.35;100251.31;4996918;28;20030;-83
2023/08/28 07:41:57;;;;;;;15.25;5.00;;;;;;;29.21;45.21;100253.72;4980213;28;20125;-84
2023/08/28 07:44:22;;;;;;;11.82;6.32;;;;;;;29.17;46.20;100239.53;5001637;28;20054;-82
2023/08/28 07:46:48;;;;;;;9.00;4.32;;;;;;;29.28;46.38;100259.13;5012515;28;20041;-85
2023/08/28 07:49:13;;;;;;;11.15;5.05;;;;;;;29.13;45.79;100246.72;5017286;28;20029;-85
2023/08/28 07:51:38;;;;;;;26.70;6.32;;;;;;;29.33;45.78;100260.00;5012794;28;20034;-83
2023/08/28 07:54:04;;;;;;;16.20;4.47;;;;;;;29.35;45.17;100257.00;4997893;28;20030;-82
2023/08/28 07:56:29;;;;;;;12.13;4.32;;;;;;;29.34;44.96;100258.09;4997303;28;20433;-84
2023/08/28 07:58:55;;;;;;;11.45;5.22;;;;;;;29.22;44.14;100254.56;5012260;28;20402;-84
2023/08/28 08:01:20;;;;;;;15.07;5.18;;;;;;;29.32;44.85;100261.13;5009177;28;20041;-83
2023/08/28 08:03:46;;;;;;;19.02;4.57;;;;;;;29.30;41.85;100257.75;5008667;28;20054;-86
2023/08/28 08:06:11;;;;;;;11.10;4.00;;;;;;;29.38;42.51;100264.81;5002982;28;20498;-84
2023/08/28 08:08:37;;;;;;;30.20;6.88;;;;;;;29.51;43.64;100264.44;5010182;28;20120;-83
2023/08/28 08:11:02;;;;;;;10.13;4.22;;;;;;;29.58;42.57;100259.50;5002680;28;20046;-81
2023/08/28 08:13:27;;;;;;;14.98;4.70;;;;;;;29.60;41.86;100252.59;4997667;28;20026;-83
2023/08/28 08:15:53;;;;;;;31.60;5.32;;;;;;;29.63;41.30;100245.75;4997497;28;20038;-81
2023/08/28 08:18:19;;;;;;;14.65;5.00;;;;;;;29.78;42.81;100248.69;4997050;28;20068;-85
2023/08/28 08:20:44;;;;;;;11.45;3.47;;;;;;;29.98;42.56;100260.03;5007820;28;20042;-85
2023/08/28 08:23:10;;;;;;;16.58;4.90;;;;;;;30.06;41.55;100261.50;4994760;28;20029;-82
2023/08/28 08:25:35;;;;;;;14.65;4.53;;;;;;;30.09;41.50;100253.47;5003254;28;20038;-84
2023/08/28 08:28:02;;;;;;;21.40;4.70;;;;;;;30.09;42.29;100239.59;5013359;28;20022;-80
2023/08/28 08:30:28;;;;;;;12.70;4.50;;;;;;;30.20;41.76;100244.19;5013641;28;20030;-84
2023/08/28 08:32:53;;;;;;;21.88;5.32;;;;;;;30.26;41.58;100242.28;5013163;28;20057;-83
2023/08/28 08:35:19;;;;;;;19.17;4.70;;;;;;;30.30;40.12;100240.66;5013334;28;20041;-83
2023/08/28 08:37:47;;;;;;;10.02;5.05;;;;;;;30.34;41.20;100233.47;5008697;28;20414;-84
2023/08/28 08:40:13;;;;;;;13.90;4.47;;;;;;;30.46;40.93;100238.88;4997340;28;20026;-82
2023/08/28 08:42:39;;;;;;;13.68;4.97;;;;;;;30.54;41.17;100230.06;4993628;28;20027;-84
2023/08/28 08:45:06;;;;;;;27.20;5.07;;;;;;;30.65;41.04;100229.88;4993585;28;20042;-83
2023/08/28 08:47:33;;;;;;;21.30;6.47;;;;;;;30.78;41.23;100236.91;4994892;28;20037;-80
2023/08/28 08:50:03;;;;;;;21.70;4.82;;;;;;;30.88;40.87;100228.66;4995281;28;20035;-83
2023/08/28 08:52:30;;;;;;;18.40;4.90;;;;;;;30.80;40.69;100229.16;4998492;28;20027;-85
2023/08/28 08:55:05;;;;;;;26.05;5.00;;;;;;;30.87;40.40;100229.75;4994927;28;20494;-82
2023/08/28 08:57:42;;;;;;;10.90;4.18;;;;;;;30.88;40.12;100231.44;4977723;28;20073;-83
2023/08/28 09:00:13;;;;;;;15.60;4.82;;;;;;;30.78;39.20;100217.47;4994944;28;20098;-83
2023/08/28 09:02:41;;;;;;;14.87;5.43;;;;;;;30.93;40.28;100238.97;4993868;28;20038;-83
2023/08/28 09:05:07;;;;;;;15.95;4.57;;;;;;;30.83;40.45;100234.16;4998777;28;20092;-84
2023/08/28 09:07:34;;;;;;;18.80;4.78;;;;;;;30.92;39.46;100234.50;5004967;28;20035;-82
2023/08/28 09:10:02;;;;;;;13.07;4.55;;;;;;;30.95;40.09;100229.28;4994444;28;20035;-84
2023/08/28 09:12:27;;;;;;;14.13;5.25;;;;;;;31.00;39.45;100232.13;4994741;28;20113;-81
2023/08/28 09:14:53;;;;;;;11.10;4.40;;;;;;;31.04;38.69;100216.56;4997847;28;20054;-83
2023/08/28 09:17:19;;;;;;;15.93;4.72;;;;;;;31.00;39.07;100223.78;5007424;28;20044;-84
2023/08/28 09:19:45;;;;;;;26.45;4.97;;;;;;;31.07;39.53;100229.91;5013123;28;20441;-83
2023/08/28 09:22:10;;;;;;;13.60;6.50;;;;;;;31.08;39.10;100214.94;4994276;28;20034;-83
2023/08/28 09:24:38;;;;;;;18.65;5.32;;;;;;;31.14;39.68;100207.44;4994106;28;20045;-85
2023/08/28 09:27:04;;;;;;;16.00;4.55;;;;;;;31.13;39.13;100208.56;4993850;28;20041;-83
2023/08/28 09:29:29;;;;;;;9.23;4.55;;;;;;;31.15;36.84;100215.53;4992831;28;20026;-84
2023/08/28 09:32:05;;;;;;;10.13;4.13;;;;;;;31.29;36.88;100215.88;4993647;28;20029;-82
2023/08/28 09:34:39;;;;;;;16.55;4.57;;;;;;;31.36;37.54;100221.19;5008149;28;20563;-85
2023/08/28 09:37:11;;;;;;;10.68;4.70;;;;;;;31.39;37.14;100203.97;5012198;28;20506;-83
2023/08/28 09:39:40;;;;;;;17.05;4.80;;;;;;;31.36;37.47;100210.91;5012349;28;20033;-85
2023/08/28 09:42:08;;;;;;;13.60;4.15;;;;;;;31.54;36.29;100195.72;5012742;28;20072;-84
2023/08/28 09:44:36;;;;;;;16.70;4.68;;;;;;;31.57;36.39;100197.94;4993818;28;20042;-84
2023/08/28 09:47:01;;;;;;;18.15;4.00;;;;;;;31.62;36.50;100192.41;5011838;28;20045;-84
2023/08/28 09:49:28;;;;;;;11.18;4.20;;;;;;;31.64;34.30;100192.97;5011798;28;20026;-86
2023/08/28 09:51:57;;;;;;;19.10;5.28;;;;;;;31.71;34.41;100196.34;5011842;28;20406;-84
2023/08/28 09:54:23;;;;;;;10.90;4.65;;;;;;;31.66;35.42;100207.41;5012315;28;20132;-83
2023/08/28 09:56:48;;;;;;;12.05;4.13;;;;;;;31.59;32.64;100173.50;5012019;28;20496;-85
2023/08/28 09:59:15;;;;;;;10.25;4.53;;;;;;;31.61;35.62;100190.72;5012497;28;20038;-86
2023/08/28 10:01:41;;;;;;;18.33;4.45;;;;;;;31.77;33.54;100193.25;4994168;28;20030;-85
2023/08/28 10:04:08;;;;;;;13.60;5.32;;;;;;;31.75;34.46;100189.09;5011725;28;20045;-85
2023/08/28 10:06:38;;;;;;;18.58;4.78;;;;;;;31.87;33.15;100184.09;5012253;28;20033;-85
2023/08/28 10:09:06;;;;;;;14.02;4.30;;;;;;;31.85;32.59;100174.38;5005649;28;20026;-84
2023/08/28 10:11:37;;;;;;;9.88;4.72;;;;;;;31.78;34.13;100180.19;4991928;28;20052;-83
2023/08/28 10:14:04;;;;;;;23.20;4.77;;;;;;;31.55;33.54;100159.31;4992086;28;20049;-84
2023/08/28 10:16:33;;;;;;;19.35;4.93;;;;;;;31.65;33.62;100181.56;4974766;28;20092;-85
2023/08/28 10:19:27;;;;;;;12.68;4.30;;;;;;;31.53;34.49;100160.69;4973938;28;20586;-83
2023/08/28 10:21:53;;;;;;;12.50;4.68;;;;;;;31.68;36.35;100182.97;4992470;28;20029;-84
2023/08/28 10:24:19;;;;;;;14.77;5.32;;;;;;;31.86;36.28;100178.84;4994887;28;20532;-81
2023/08/28 10:26:46;;;;;;;17.45;4.93;;;;;;;31.99;35.79;100176.34;4999081;28;20650;-87
2023/08/28 10:29:14;;;;;;;11.02;4.03;;;;;;;32.00;35.78;100177.19;5002616;28;20045;-89
2023/08/28 10:31:41;;;;;;;19.45;4.63;;;;;;;31.96;37.14;100165.75;5006186;28;20452;-85
2023/08/28 10:34:07;;;;;;;10.25;4.35;;;;;;;32.03;35.81;100155.25;5008891;28;20038;-82
2023/08/28 10:36:35;;;;;;;15.88;5.85;;;;;;;32.05;36.08;100168.88;5010935;28;20026;-86
2023/08/28 10:39:02;;;;;;;13.13;4.45;;;;;;;32.22;37.21;100159.16;5010744;28;20046;-90
2023/08/28 10:41:29;;;;;;;11.35;4.43;;;;;;;32.27;35.90;100167.50;4992211;28;20125;-89
2023/08/28 10:43:58;;;;;;;9.48;4.72;;;;;;;32.28;37.53;100168.34;5008173;28;20026;-87
2023/08/28 10:46:27;;;;;;;17.13;5.15;;;;;;;32.50;37.58;100170.84;5009976;28;20049;-91
2023/08/28 10:48:57;;;;;;;17.77;4.30;;;;;;;32.66;36.92;100169.75;4996998;28;20088;-90
2023/08/28 10:51:30;;;;;;;14.48;4.68;;;;;;;32.41;37.32;100158.59;4994034;28;20030;-91
2023/08/28 10:54:08;;;;;;;16.17;4.43;;;;;;;32.50;36.68;100170.84;5013856;28;20456;-88
2023/08/28 10:56:35;;;;;;;15.45;5.25;;;;;;;32.46;37.77;100164.97;5011689;28;20025;-85
2023/08/28 10:59:19;;;;;;;21.63;5.93;;;;;;;32.60;36.72;100166.09;5008657;28;20037;-88
2023/08/28 11:01:57;;;;;;;22.60;4.93;;;;;;;32.59;37.22;100158.03;4991635;28;20038;-81
2023/08/28 11:04:31;;;;;;;17.08;5.25;;;;;;;32.56;36.93;100165.00;4975649;28;20042;-83
2023/08/28 11:06:57;;;;;;;14.38;4.78;;;;;;;32.42;36.70;100146.31;4991937;28;20026;-84
2023/08/28 11:09:28;;;;;;;23.20;6.38;;;;;;;32.47;37.32;100149.13;4992859;28;20130;-81
2023/08/28 11:12:00;;;;;;;8.77;4.63;;;;;;;32.56;36.60;100153.03;4991669;28;20037;-83
2023/08/28 11:14:40;;;;;;;14.65;4.43;;;;;;;32.53;36.65;100159.13;4991449;28;20474;-82